createdAt,value
2019-02-05T00:01:09.932Z,24.18
2019-02-05T00:03:36.979Z,21.77
2019-02-05T00:06:05.041Z,22.60
2019-02-05T00:08:32.457Z,21.35
2019-02-05T00:10:59.599Z,23.73
2019-02-05T00:13:26.660Z,21.87
2019-02-05T00:15:53.753Z,20.45
2019-02-05T00:18:20.788Z,20.82
2019-02-05T00:20:47.841Z,19.85
2019-02-05T00:23:15.320Z,21.23
2019-02-05T00:25:42.377Z,18.67
2019-02-05T00:28:09.932Z,20.88
2019-02-05T00:30:37.587Z,19.90
2019-02-05T00:33:04.946Z,19.82
2019-02-05T00:35:32.327Z,19.15
2019-02-05T00:37:59.674Z,18.80
2019-02-05T00:40:27.212Z,22.10
2019-02-05T00:42:54.585Z,19.55
2019-02-05T00:45:21.938Z,19.32
2019-02-05T00:47:49.793Z,19.75
2019-02-05T00:50:17.242Z,19.80
2019-02-05T00:52:44.567Z,20.45
2019-02-05T00:55:12.154Z,20.88
2019-02-05T00:57:39.513Z,19.98
2019-02-05T01:00:16.078Z,16.93
2019-02-05T01:02:43.742Z,18.62
2019-02-05T01:05:11.404Z,18.87
2019-02-05T01:07:38.802Z,19.57
2019-02-05T01:10:06.418Z,17.82
2019-02-05T01:12:34.183Z,17.10
2019-02-05T01:15:02.172Z,17.62
2019-02-05T01:17:30.033Z,18.60
2019-02-05T01:19:57.073Z,18.32
2019-02-05T01:22:24.262Z,19.10
2019-02-05T01:24:51.309Z,16.80
2019-02-05T01:27:18.422Z,15.88
2019-02-05T01:29:45.479Z,15.55
2019-02-05T01:32:12.910Z,15.48
2019-02-05T01:34:40.609Z,15.18
2019-02-05T01:37:07.944Z,14.70
2019-02-05T01:39:36.207Z,14.60
2019-02-05T01:42:04.688Z,15.68
2019-02-05T01:44:32.551Z,15.05
2019-02-05T01:47:02.001Z,14.98
2019-02-05T01:49:29.716Z,15.23
2019-02-05T01:51:57.073Z,15.88
2019-02-05T01:54:24.432Z,16.45
2019-02-05T01:56:51.460Z,14.73
2019-02-05T01:59:18.510Z,16.50
2019-02-05T02:01:46.284Z,17.92
2019-02-05T02:04:13.353Z,15.08
2019-02-05T02:06:40.685Z,15.50
2019-02-05T02:09:09.475Z,16.82
2019-02-05T02:11:37.069Z,16.20
2019-02-05T02:14:04.692Z,16.40
2019-02-05T02:16:31.808Z,16.90
2019-02-05T02:18:59.884Z,16.45
2019-02-05T02:21:28.723Z,16.90
2019-02-05T02:23:56.061Z,16.82
2019-02-05T02:26:24.027Z,17.70
2019-02-05T02:28:51.490Z,16.45
2019-02-05T02:31:19.274Z,16.20
2019-02-05T02:33:46.318Z,16.67
2019-02-05T02:36:14.062Z,16.15
2019-02-05T02:38:41.114Z,16.42
2019-02-05T02:41:08.227Z,17.42
2019-02-05T02:43:36.250Z,17.52
2019-02-05T02:46:03.869Z,17.32
2019-02-05T02:48:31.145Z,19.07
2019-02-05T02:50:58.192Z,17.02
2019-02-05T02:53:25.849Z,16.52
2019-02-05T02:55:53.612Z,17.65
2019-02-05T02:58:20.638Z,18.62
2019-02-05T03:00:48.081Z,17.20
2019-02-05T03:03:15.443Z,19.07
2019-02-05T03:05:44.688Z,19.40
2019-02-05T03:08:12.126Z,18.10
2019-02-05T03:10:39.333Z,18.12
2019-02-05T03:13:13.251Z,18.50
2019-02-05T03:15:41.443Z,17.05
2019-02-05T03:18:09.225Z,17.90
2019-02-05T03:20:37.785Z,19.67
2019-02-05T03:23:05.971Z,17.02
2019-02-05T03:25:33.343Z,18.52
2019-02-05T03:28:02.234Z,18.20
2019-02-05T03:30:30.834Z,17.02
2019-02-05T03:32:57.972Z,18.80
2019-02-05T03:35:25.012Z,17.98
2019-02-05T03:37:52.597Z,18.32
2019-02-05T03:40:58.306Z,18.48
2019-02-05T03:43:27.316Z,19.32
2019-02-05T03:45:55.481Z,20.65
2019-02-05T03:48:24.476Z,18.45
2019-02-05T03:50:56.644Z,19.15
2019-02-05T03:53:24.713Z,18.90
2019-02-05T03:56:08.560Z,22.15
2019-02-05T03:59:26.805Z,21.40
2019-02-05T04:02:36.244Z,20.65
2019-02-05T04:05:40.062Z,21.62
2019-02-05T04:08:37.725Z,19.42
2019-02-05T04:11:51.437Z,20.40
2019-02-05T04:15:12.629Z,20.90
2019-02-05T04:17:59.584Z,23.57
2019-02-05T04:21:13.860Z,21.17
2019-02-05T04:24:08.010Z,21.10
2019-02-05T04:26:58.449Z,21.05
2019-02-05T04:29:52.758Z,20.00
2019-02-05T04:32:37.059Z,19.98
2019-02-05T04:35:51.285Z,19.90
2019-02-05T04:39:11.807Z,20.55
2019-02-05T04:42:20.336Z,21.15
2019-02-05T04:45:33.767Z,20.00
2019-02-05T04:48:36.432Z,20.43
2019-02-05T04:51:41.794Z,19.12
2019-02-05T04:54:26.762Z,21.90
2019-02-05T04:57:20.006Z,21.90
2019-02-05T05:00:19.638Z,20.23
2019-02-05T05:03:33.781Z,23.50
2019-02-05T05:06:24.694Z,22.82
2019-02-05T05:09:18.892Z,20.00
2019-02-05T05:11:46.653Z,21.70
2019-02-05T05:14:15.542Z,21.27
2019-02-05T05:16:43.091Z,21.25
2019-02-05T05:19:10.162Z,19.95
2019-02-05T05:21:38.022Z,19.57
2019-02-05T05:24:05.477Z,20.62
2019-02-05T05:26:32.627Z,19.20
2019-02-05T05:28:59.704Z,21.20
2019-02-05T05:31:28.256Z,22.32
2019-02-05T05:33:56.217Z,21.97
2019-02-05T05:36:23.379Z,20.60
2019-02-05T05:38:52.926Z,21.75
2019-02-05T05:41:21.451Z,19.85
2019-02-05T05:43:48.802Z,20.68
2019-02-05T05:46:15.858Z,19.45
2019-02-05T05:48:43.628Z,18.27
2019-02-05T05:51:12.401Z,18.25
2019-02-05T05:53:40.063Z,21.20
2019-02-05T05:56:07.130Z,18.60
2019-02-05T05:58:34.610Z,19.80
2019-02-05T06:01:02.046Z,18.27
2019-02-05T06:03:29.449Z,18.00
2019-02-05T06:05:56.489Z,19.10
2019-02-05T06:08:26.073Z,17.37
2019-02-05T06:10:53.391Z,18.35
2019-02-05T06:13:20.682Z,19.77
2019-02-05T06:15:49.528Z,20.20
2019-02-05T06:18:17.798Z,20.77
2019-02-05T06:20:45.768Z,19.23
2019-02-05T06:23:13.536Z,20.62
2019-02-05T06:25:40.898Z,22.05
2019-02-05T06:28:08.080Z,21.55
2019-02-05T06:30:35.395Z,23.02
2019-02-05T06:33:02.745Z,21.45
2019-02-05T06:35:31.649Z,21.95
2019-02-05T06:37:58.989Z,24.37
2019-02-05T06:40:27.782Z,26.20
2019-02-05T06:42:55.189Z,23.95
2019-02-05T06:45:23.923Z,22.98
2019-02-05T06:47:52.404Z,28.10
2019-02-05T06:50:19.757Z,24.32
2019-02-05T06:52:47.168Z,22.35
2019-02-05T06:55:17.230Z,23.20
2019-02-05T06:57:46.024Z,21.65
2019-02-05T07:00:19.654Z,24.05
2019-02-05T07:02:48.207Z,20.02
2019-02-05T07:05:15.345Z,20.80
2019-02-05T07:07:43.409Z,19.37
2019-02-05T07:10:13.186Z,20.23
2019-02-05T07:12:40.221Z,23.92
2019-02-05T07:15:08.150Z,23.00
2019-02-05T07:17:36.322Z,19.52
2019-02-05T07:20:04.252Z,19.60
2019-02-05T07:22:31.645Z,20.37
2019-02-05T07:24:58.886Z,20.95
2019-02-05T07:27:25.894Z,19.17
2019-02-05T07:29:53.315Z,20.37
2019-02-05T07:32:20.371Z,20.92
2019-02-05T07:34:47.697Z,17.95
2019-02-05T07:37:14.718Z,17.90
2019-02-05T07:39:43.127Z,21.25
2019-02-05T07:42:10.156Z,20.45
2019-02-05T07:44:40.151Z,19.98
2019-02-05T07:47:07.393Z,18.65
2019-02-05T07:49:34.835Z,16.67
2019-02-05T07:52:02.467Z,20.08
2019-02-05T07:54:30.426Z,19.62
2019-02-05T07:56:57.695Z,17.30
2019-02-05T07:59:24.717Z,20.57
2019-02-05T08:01:51.878Z,20.62
2019-02-05T08:04:19.543Z,23.25
2019-02-05T08:06:47.407Z,20.08
2019-02-05T08:09:14.519Z,19.10
2019-02-05T08:11:41.932Z,19.73
2019-02-05T08:14:09.584Z,21.70
2019-02-05T08:16:36.723Z,21.20
2019-02-05T08:19:04.135Z,19.52
2019-02-05T08:21:31.648Z,19.85
2019-02-05T08:23:58.677Z,19.95
2019-02-05T08:26:26.446Z,21.25
2019-02-05T08:28:53.797Z,21.35
2019-02-05T08:31:21.081Z,20.12
2019-02-05T08:33:48.316Z,19.67
2019-02-05T08:36:15.359Z,21.05
2019-02-05T08:38:42.749Z,19.55
2019-02-05T08:41:09.819Z,20.27
2019-02-05T08:43:37.227Z,18.17
2019-02-05T08:46:04.993Z,17.77
2019-02-05T08:48:32.132Z,18.52
2019-02-05T08:50:59.214Z,19.20
2019-02-05T08:53:27.271Z,19.10
2019-02-05T08:55:54.321Z,18.85
2019-02-05T08:58:30.536Z,17.32
2019-02-05T09:00:50.450Z,17.95
2019-02-05T09:03:18.671Z,17.90
2019-02-05T09:05:45.721Z,17.82
2019-02-05T09:08:13.672Z,18.05
2019-02-05T09:10:41.765Z,17.85
2019-02-05T09:13:09.454Z,17.55
2019-02-05T09:15:36.916Z,17.35
2019-02-05T09:18:05.601Z,16.57
2019-02-05T09:20:34.084Z,17.10
2019-02-05T09:23:01.435Z,15.60
2019-02-05T09:25:29.195Z,15.83
2019-02-05T09:27:56.260Z,15.08
2019-02-05T09:30:25.625Z,15.58
2019-02-05T09:32:54.612Z,16.02
2019-02-05T09:35:21.671Z,15.50
2019-02-05T09:37:51.086Z,13.68
2019-02-05T09:40:24.069Z,17.50
2019-02-05T09:42:51.128Z,15.98
2019-02-05T09:45:18.690Z,13.55
2019-02-05T09:47:46.138Z,12.70
2019-02-05T09:50:13.801Z,13.55
2019-02-05T09:52:40.862Z,13.35
2019-02-05T09:55:10.632Z,11.30
2019-02-05T09:57:38.322Z,15.00
2019-02-05T10:00:11.037Z,14.75
2019-02-05T10:02:38.764Z,15.72
2019-02-05T10:05:07.655Z,14.05
2019-02-05T10:07:35.314Z,15.85
2019-02-05T10:10:03.089Z,15.58
2019-02-05T10:12:31.152Z,14.38
2019-02-05T10:14:59.631Z,16.73
2019-02-05T10:17:27.001Z,14.83
2019-02-05T10:19:54.019Z,14.45
2019-02-05T10:22:21.388Z,17.17
2019-02-05T10:24:49.918Z,16.27
2019-02-05T10:27:17.942Z,17.32
2019-02-05T10:29:56.537Z,16.48
2019-02-05T10:32:15.555Z,14.70
2019-02-05T10:34:43.186Z,15.35
2019-02-05T10:37:10.540Z,15.45
2019-02-05T10:39:37.887Z,13.35
2019-02-05T10:42:05.559Z,13.72
2019-02-05T10:44:33.508Z,16.07
2019-02-05T10:47:00.920Z,15.70
2019-02-05T10:49:28.225Z,15.15
2019-02-05T10:51:55.691Z,13.55
2019-02-05T10:54:23.350Z,13.50
2019-02-05T10:56:50.847Z,11.30
2019-02-05T10:59:18.273Z,13.95
2019-02-05T11:01:45.621Z,15.30
2019-02-05T11:04:13.064Z,12.95
2019-02-05T11:06:40.203Z,12.98
2019-02-05T11:09:09.621Z,14.05
2019-02-05T11:11:38.030Z,12.70
2019-02-05T11:14:05.554Z,13.78
2019-02-05T11:16:32.631Z,12.53
2019-02-05T11:18:59.963Z,13.03
2019-02-05T11:21:27.341Z,11.30
2019-02-05T11:23:55.288Z,13.95
2019-02-05T11:26:22.307Z,12.33
2019-02-05T11:28:49.342Z,14.85
2019-02-05T11:31:16.774Z,12.18
2019-02-05T11:33:43.811Z,13.53
2019-02-05T11:36:11.155Z,12.60
2019-02-05T11:38:38.211Z,12.40
2019-02-05T11:41:05.593Z,11.90
2019-02-05T11:43:32.910Z,14.47
2019-02-05T11:46:00.771Z,10.63
2019-02-05T11:48:27.859Z,12.18
2019-02-05T11:50:55.260Z,12.28
2019-02-05T11:53:22.376Z,11.20
2019-02-05T11:55:49.766Z,10.68
2019-02-05T11:58:18.452Z,11.60
2019-02-05T12:01:03.315Z,14.40
2019-02-05T12:03:30.367Z,10.45
2019-02-05T12:05:57.386Z,10.30
2019-02-05T12:08:24.425Z,12.33
2019-02-05T12:10:51.462Z,10.48
2019-02-05T12:13:19.541Z,11.08
2019-02-05T12:15:47.898Z,13.00
2019-02-05T12:18:20.944Z,12.55
2019-02-05T12:20:49.009Z,11.48
2019-02-05T12:23:16.075Z,14.25
2019-02-05T12:25:44.741Z,14.93
2019-02-05T12:28:12.404Z,12.70
2019-02-05T12:30:45.028Z,13.30
2019-02-05T12:33:09.353Z,14.18
2019-02-05T12:35:37.231Z,13.25
2019-02-05T12:38:06.530Z,14.25
2019-02-05T12:40:34.051Z,10.85
2019-02-05T12:43:01.092Z,14.43
2019-02-05T12:45:29.310Z,14.03
2019-02-05T12:47:56.711Z,14.38
2019-02-05T12:50:26.569Z,12.93
2019-02-05T12:52:55.466Z,13.00
2019-02-05T12:55:23.830Z,13.80
2019-02-05T12:57:50.879Z,13.65
2019-02-05T13:00:24.398Z,14.75
2019-02-05T13:02:54.422Z,12.98
2019-02-05T13:05:20.664Z,12.90
2019-02-05T13:07:47.755Z,14.05
2019-02-05T13:10:17.355Z,12.25
2019-02-05T13:12:44.380Z,13.25
2019-02-05T13:15:11.551Z,12.80
2019-02-05T13:17:42.926Z,13.48
2019-02-05T13:20:14.037Z,12.95
2019-02-05T13:22:41.460Z,15.55
2019-02-05T13:25:12.959Z,11.45
2019-02-05T13:27:40.017Z,12.28
2019-02-05T13:30:08.282Z,10.63
2019-02-05T13:32:35.302Z,12.00
2019-02-05T13:35:02.671Z,11.95
2019-02-05T13:37:31.206Z,12.50
2019-02-05T13:39:58.247Z,12.30
2019-02-05T13:42:25.906Z,13.20
2019-02-05T13:44:52.942Z,11.75
2019-02-05T13:47:21.012Z,12.43
2019-02-05T13:49:48.475Z,10.03
2019-02-05T13:52:16.488Z,11.70
2019-02-05T13:54:43.517Z,10.73
2019-02-05T13:57:11.062Z,11.57
2019-02-05T13:59:39.580Z,13.10
2019-02-05T14:02:07.202Z,12.93
2019-02-05T14:04:34.255Z,11.63
2019-02-05T14:07:01.279Z,9.98
2019-02-05T14:09:29.670Z,12.43
2019-02-05T14:11:57.069Z,12.55
2019-02-05T14:14:25.728Z,10.70
2019-02-05T14:16:53.387Z,11.25
2019-02-05T14:19:21.036Z,11.20
2019-02-05T14:21:48.382Z,11.00
2019-02-05T14:24:15.856Z,12.55
2019-02-05T14:26:43.554Z,12.88
2019-02-05T14:29:12.290Z,10.75
2019-02-05T14:31:39.654Z,12.95
2019-02-05T14:34:06.706Z,12.82
2019-02-05T14:36:34.358Z,11.48
2019-02-05T14:39:01.493Z,12.00
2019-02-05T14:41:30.703Z,10.27
2019-02-05T14:43:58.090Z,12.45
2019-02-05T14:46:25.369Z,11.53
2019-02-05T14:48:52.445Z,11.95
2019-02-05T14:51:19.463Z,12.50
2019-02-05T14:53:46.863Z,13.48
2019-02-05T14:56:13.903Z,13.58
2019-02-05T14:58:41.170Z,11.97
2019-02-05T15:01:08.515Z,12.33
2019-02-05T15:03:35.595Z,13.80
2019-02-05T15:06:03.020Z,13.10
2019-02-05T15:08:30.802Z,13.40
2019-02-05T15:10:59.793Z,12.75
2019-02-05T15:13:26.815Z,13.22
2019-02-05T15:15:53.846Z,12.23
2019-02-05T15:18:23.229Z,13.98
2019-02-05T15:20:50.483Z,12.58
2019-02-05T15:23:17.503Z,11.97
2019-02-05T15:25:44.825Z,12.28
2019-02-05T15:28:12.586Z,11.18
2019-02-05T15:30:42.129Z,12.10
2019-02-05T15:33:34.942Z,11.53
2019-02-05T15:36:08.031Z,12.28
2019-02-05T15:38:35.386Z,10.88
2019-02-05T15:41:03.990Z,11.03
2019-02-05T15:43:31.321Z,12.15
2019-02-05T15:45:58.359Z,12.07
2019-02-05T15:48:25.567Z,10.00
2019-02-05T15:50:53.028Z,11.15
2019-02-05T15:53:20.463Z,11.60
2019-02-05T15:55:47.798Z,10.95
2019-02-05T15:58:14.850Z,10.35
2019-02-05T16:00:42.317Z,9.58
2019-02-05T16:03:09.346Z,11.18
2019-02-05T16:05:36.440Z,11.53
2019-02-05T16:08:03.935Z,12.73
2019-02-05T16:10:31.055Z,8.58
2019-02-05T16:12:58.670Z,9.88
2019-02-05T16:15:26.379Z,8.68
2019-02-05T16:17:55.550Z,10.90
2019-02-05T16:20:22.867Z,11.90
2019-02-05T16:22:50.515Z,13.25
2019-02-05T16:25:19.219Z,11.45
2019-02-05T16:27:47.196Z,11.28
2019-02-05T16:30:16.796Z,10.50
2019-02-05T16:32:44.150Z,10.75
2019-02-05T16:35:12.321Z,11.25
2019-02-05T16:37:39.688Z,10.32
2019-02-05T16:40:11.074Z,12.25
2019-02-05T16:42:38.484Z,11.43
2019-02-05T16:45:07.847Z,11.63
2019-02-05T16:47:35.006Z,12.10
2019-02-05T16:50:02.164Z,11.40
2019-02-05T16:52:29.749Z,10.53
2019-02-05T16:54:57.396Z,12.07
2019-02-05T16:57:25.068Z,12.45
2019-02-05T16:59:52.421Z,12.13
2019-02-05T17:02:28.688Z,11.15
2019-02-05T17:04:49.075Z,10.45
2019-02-05T17:07:17.149Z,11.08
2019-02-05T17:09:45.830Z,11.48
2019-02-05T17:12:12.885Z,11.80
2019-02-05T17:14:40.845Z,10.53
2019-02-05T17:17:07.910Z,11.68
2019-02-05T17:19:35.756Z,11.88
2019-02-05T17:22:03.093Z,11.90
2019-02-05T17:24:30.671Z,11.73
2019-02-05T17:26:59.153Z,10.75
2019-02-05T17:29:26.503Z,11.28
2019-02-05T17:31:53.567Z,9.18
2019-02-05T17:34:20.926Z,10.15
2019-02-05T17:36:47.956Z,10.15
2019-02-05T17:39:16.040Z,12.73
2019-02-05T17:41:43.397Z,11.65
2019-02-05T17:44:10.424Z,13.05
2019-02-05T17:46:37.843Z,13.65
2019-02-05T17:49:04.923Z,12.82
2019-02-05T17:51:32.793Z,12.28
2019-02-05T17:54:01.084Z,14.33
2019-02-05T17:56:28.635Z,12.95
2019-02-05T17:58:55.677Z,14.78
2019-02-05T18:01:22.727Z,14.50
2019-02-05T18:03:49.747Z,15.32
2019-02-05T18:06:16.843Z,14.30
2019-02-05T18:08:44.846Z,14.25
2019-02-05T18:11:12.149Z,13.08
2019-02-05T18:13:39.900Z,13.93
2019-02-05T18:16:18.016Z,13.40
2019-02-05T18:18:45.370Z,12.95
2019-02-05T18:21:12.403Z,14.55
2019-02-05T18:23:40.498Z,13.35
2019-02-05T18:26:07.842Z,14.43
2019-02-05T18:28:35.271Z,13.32
2019-02-05T18:31:02.652Z,12.18
2019-02-05T18:33:29.769Z,13.62
2019-02-05T18:35:56.781Z,13.72
2019-02-05T18:38:23.827Z,14.43
2019-02-05T18:40:50.895Z,11.73
2019-02-05T18:43:18.319Z,12.20
2019-02-05T18:45:45.361Z,13.90
2019-02-05T18:48:12.409Z,12.45
2019-02-05T18:50:40.489Z,12.90
2019-02-05T18:53:07.533Z,12.98
2019-02-05T18:55:35.025Z,14.25
2019-02-05T18:58:09.474Z,12.95
2019-02-05T19:00:33.341Z,13.83
2019-02-05T19:03:00.718Z,13.85
2019-02-05T19:05:27.934Z,13.30
2019-02-05T19:07:57.156Z,15.93
2019-02-05T19:10:26.178Z,13.10
2019-02-05T19:12:53.204Z,12.98
2019-02-05T19:15:26.201Z,12.23
2019-02-05T19:17:53.224Z,11.63
2019-02-05T19:20:22.524Z,13.75
2019-02-05T19:22:49.599Z,14.43
2019-02-05T19:25:42.478Z,13.62
2019-02-05T19:28:11.563Z,13.18
2019-02-05T19:30:41.387Z,12.60
2019-02-05T19:33:08.414Z,13.03
2019-02-05T19:35:35.486Z,13.88
2019-02-05T19:38:02.531Z,13.93
2019-02-05T19:40:30.261Z,12.18
2019-02-05T19:42:57.607Z,11.95
2019-02-05T19:45:49.519Z,13.50
2019-02-05T19:48:27.327Z,13.53
2019-02-05T19:50:54.648Z,10.63
2019-02-05T19:53:21.955Z,13.20
2019-02-05T19:55:49.433Z,14.35
2019-02-05T19:58:16.458Z,13.55
2019-02-05T20:00:43.470Z,11.18
2019-02-05T20:03:11.202Z,14.18
2019-02-05T20:05:39.263Z,14.95
2019-02-05T20:08:06.287Z,13.70
2019-02-05T20:10:33.667Z,14.35
2019-02-05T20:13:00.796Z,14.30
2019-02-05T20:15:27.827Z,15.25
2019-02-05T20:17:54.875Z,14.10
2019-02-05T20:20:21.926Z,14.80
2019-02-05T20:22:49.249Z,13.08
2019-02-05T20:25:16.303Z,13.90
2019-02-05T20:27:43.348Z,13.45
2019-02-05T20:30:13.635Z,12.73
2019-02-05T20:32:41.359Z,14.25
2019-02-05T20:35:08.564Z,12.23
2019-02-05T20:37:35.960Z,14.10
2019-02-05T20:40:06.968Z,13.05
2019-02-05T20:42:34.414Z,14.05
2019-02-05T20:45:02.086Z,12.35
2019-02-05T20:47:29.244Z,12.88
2019-02-05T20:49:56.348Z,14.45
2019-02-05T20:52:24.285Z,18.92
2019-02-05T20:54:51.392Z,14.65
2019-02-05T20:57:18.495Z,18.48
2019-02-05T20:59:45.971Z,17.48
2019-02-05T21:02:15.478Z,15.50
2019-02-05T21:04:48.402Z,15.75
2019-02-05T21:07:11.517Z,16.12
2019-02-05T21:09:42.304Z,14.38
2019-02-05T21:12:09.775Z,15.60
2019-02-05T21:14:37.232Z,16.05
2019-02-05T21:17:04.303Z,17.27
2019-02-05T21:19:31.766Z,15.85
2019-02-05T21:22:00.396Z,15.75
2019-02-05T21:24:27.456Z,16.02
2019-02-05T21:26:54.547Z,16.02
2019-02-05T21:29:23.976Z,17.07
2019-02-05T21:31:51.018Z,16.10
2019-02-05T21:34:18.067Z,17.50
2019-02-05T21:36:45.515Z,15.93
2019-02-05T21:39:12.836Z,18.05
2019-02-05T21:41:40.586Z,19.70
2019-02-05T21:44:07.636Z,18.48
2019-02-05T21:46:35.913Z,17.65
2019-02-05T21:49:03.572Z,18.35
2019-02-05T21:51:40.205Z,20.92
2019-02-05T21:54:00.319Z,19.73
2019-02-05T21:56:27.679Z,17.37
2019-02-05T21:58:55.060Z,21.97
2019-02-05T22:01:22.494Z,18.80
2019-02-05T22:03:50.154Z,20.68
2019-02-05T22:06:17.193Z,20.72
2019-02-05T22:08:44.841Z,19.85
2019-02-05T22:11:12.317Z,18.55
2019-02-05T22:13:39.360Z,19.52
2019-02-05T22:16:06.870Z,21.35
2019-02-05T22:18:34.492Z,20.85
2019-02-05T22:21:02.579Z,19.17
2019-02-05T22:23:31.378Z,21.33
2019-02-05T22:25:58.418Z,22.75
2019-02-05T22:28:25.746Z,22.67
2019-02-05T22:30:53.214Z,24.30
2019-02-05T22:33:22.001Z,24.25
2019-02-05T22:35:49.039Z,24.82
2019-02-05T22:38:16.430Z,25.95
2019-02-05T22:40:43.466Z,23.75
2019-02-05T22:43:10.710Z,26.57
2019-02-05T22:45:41.002Z,27.48
2019-02-05T22:48:07.869Z,27.93
2019-02-05T22:50:34.978Z,27.13
2019-02-05T22:53:02.307Z,29.37
2019-02-05T22:55:29.386Z,30.05
2019-02-05T22:57:56.441Z,30.48
2019-02-05T23:00:39.909Z,32.35
2019-02-05T23:03:07.893Z,34.05
2019-02-05T23:06:15.716Z,35.70
2019-02-05T23:08:42.764Z,34.80
2019-02-05T23:12:07.337Z,35.20
2019-02-05T23:14:34.381Z,36.28
2019-02-05T23:17:02.319Z,37.13
2019-02-05T23:19:29.388Z,36.42
2019-02-05T23:21:56.749Z,38.55
2019-02-05T23:24:23.889Z,38.17
2019-02-05T23:26:51.482Z,36.17
2019-02-05T23:29:19.603Z,39.48
2019-02-05T23:31:46.957Z,37.17
2019-02-05T23:34:13.997Z,38.78
2019-02-05T23:36:41.358Z,38.20
2019-02-05T23:39:08.902Z,37.60
2019-02-05T23:41:36.850Z,34.25
2019-02-05T23:44:05.161Z,35.98
2019-02-05T23:46:32.520Z,37.23
2019-02-05T23:49:00.484Z,37.13
2019-02-05T23:51:27.838Z,38.90
2019-02-05T23:53:55.910Z,36.15
2019-02-05T23:56:25.834Z,39.27
2019-02-05T23:58:54.118Z,36.13
